Time;durP1;ratioP1;P1;durP2;ratioP2;P2;SDS_P1;SDS_P2;PMS_P1;PMS_P2;Temp;Humidity;BMP_temperature;BMP_pressure;BME280_temperature;BME280_humidity;BME280_pressure;Samples;Min_cycle;Max_cycle;Signal;HPM_P1;HPM_P2
2021/10/06 00:00:20;;;;;;;1.43;1.10;;;13.20;99.90;;;;;;5054865;28;20167;-54
2021/10/06 00:02:46;;;;;;;2.70;1.10;;;13.20;99.90;;;;;;5054053;28;20259;-55
2021/10/06 00:05:12;;;;;;;2.27;0.90;;;13.30;99.90;;;;;;5055017;28;20544;-55
2021/10/06 00:07:37;;;;;;;3.23;0.90;;;13.30;99.90;;;;;;5055094;28;20587;-56
2021/10/06 00:10:06;;;;;;;1.80;1.07;;;13.20;99.90;;;;;;5055191;28;20198;-56
2021/10/06 00:12:31;;;;;;;3.53;1.63;;;13.20;99.90;;;;;;5054904;28;20201;-54
2021/10/06 00:14:57;;;;;;;3.73;1.20;;;13.10;99.90;;;;;;5054789;28;20405;-55
2021/10/06 00:17:24;;;;;;;2.20;1.00;;;13.20;99.90;;;;;;5054636;28;20166;-55
2021/10/06 00:19:50;;;;;;;4.07;1.27;;;13.00;99.90;;;;;;5054419;28;20634;-57
2021/10/06 00:22:16;;;;;;;3.40;1.20;;;13.00;99.90;;;;;;5054718;28;20773;-57
2021/10/06 00:24:42;;;;;;;3.17;1.20;;;13.00;99.90;;;;;;5054329;28;20448;-57
2021/10/06 00:27:07;;;;;;;1.50;1.20;;;13.10;99.90;;;;;;5054297;28;20643;-55
2021/10/06 00:29:33;;;;;;;1.17;0.90;;;13.10;99.90;;;;;;5054392;28;20413;-57
2021/10/06 00:31:58;;;;;;;1.50;0.90;;;13.00;99.90;;;;;;5054320;28;20167;-57
2021/10/06 00:34:24;;;;;;;1.47;1.10;;;13.00;99.90;;;;;;5052790;28;20213;-57
2021/10/06 00:36:50;;;;;;;3.37;1.40;;;12.90;99.90;;;;;;5053949;28;20170;-57
2021/10/06 00:39:15;;;;;;;1.97;1.10;;;12.90;99.90;;;;;;5054512;28;20175;-56
2021/10/06 00:41:41;;;;;;;3.23;1.00;;;13.00;99.90;;;;;;5053590;28;20171;-56
2021/10/06 00:44:15;;;;;;;3.53;1.00;;;13.10;99.90;;;;;;5054015;28;20191;-57
2021/10/06 00:46:40;;;;;;;2.40;1.20;;;13.10;99.90;;;;;;5053559;28;20412;-56
2021/10/06 00:49:06;;;;;;;2.30;1.20;;;13.10;99.90;;;;;;5054148;28;20487;-58
2021/10/06 00:51:32;;;;;;;2.57;1.13;;;13.10;99.90;;;;;;5054425;28;20167;-56
2021/10/06 00:54:02;;;;;;;1.23;1.10;;;13.00;99.90;;;;;;5054107;28;20187;-56
2021/10/06 00:56:28;;;;;;;1.77;0.80;;;12.90;99.90;;;;;;5052221;28;20178;-53
2021/10/06 00:58:54;;;;;;;1.30;1.00;;;12.80;99.90;;;;;;5052563;28;20420;-53
2021/10/06 01:01:20;;;;;;;1.10;1.00;;;12.80;99.90;;;;;;5052457;28;20190;-50
2021/10/06 01:03:45;;;;;;;3.00;1.30;;;12.90;99.90;;;;;;5053867;28;20793;-51
2021/10/06 01:06:11;;;;;;;1.50;1.00;;;12.80;99.90;;;;;;5052426;28;20172;-52
2021/10/06 01:08:37;;;;;;;4.60;1.30;;;12.70;99.90;;;;;;5053704;28;20245;-50
2021/10/06 01:11:03;;;;;;;4.07;1.10;;;12.80;99.90;;;;;;5053530;28;20482;-55
2021/10/06 01:13:28;;;;;;;1.13;0.70;;;12.80;99.90;;;;;;5044629;28;20240;-54
2021/10/06 01:15:55;;;;;;;2.17;1.33;;;12.70;99.90;;;;;;5046302;28;20409;-51
2021/10/06 01:18:21;;;;;;;1.40;1.17;;;12.70;99.90;;;;;;5053112;28;20167;-51
2021/10/06 01:20:46;;;;;;;2.43;1.10;;;12.70;99.90;;;;;;5053515;28;20766;-51
2021/10/06 01:23:14;;;;;;;2.80;0.70;;;12.60;99.90;;;;;;5053604;28;20194;-53
2021/10/06 01:25:40;;;;;;;2.00;1.10;;;12.50;99.90;;;;;;5053299;28;20203;-56
2021/10/06 01:28:05;;;;;;;5.30;1.53;;;12.60;99.90;;;;;;5053444;28;20547;-52
2021/10/06 01:30:31;;;;;;;1.73;0.80;;;12.60;99.90;;;;;;5053033;28;20179;-54
2021/10/06 01:32:57;;;;;;;3.80;1.17;;;12.60;99.90;;;;;;5052951;28;20585;-52
2021/10/06 01:35:22;;;;;;;3.37;1.00;;;12.60;99.90;;;;;;5053122;28;20757;-53
2021/10/06 01:37:48;;;;;;;3.07;0.83;;;12.60;99.90;;;;;;5052463;28;20189;-58
2021/10/06 01:40:17;;;;;;;3.30;1.20;;;12.60;99.90;;;;;;5052705;28;20659;-57
2021/10/06 01:42:43;;;;;;;1.67;1.10;;;12.60;99.90;;;;;;5052342;28;20223;-56
2021/10/06 01:45:29;;;;;;;1.30;0.93;;;12.50;99.90;;;;;;5052883;28;20472;-57
2021/10/06 01:48:03;;;;;;;1.60;1.07;;;12.50;99.90;;;;;;5052784;28;20194;-56
2021/10/06 01:50:29;;;;;;;1.93;1.03;;;12.30;99.90;;;;;;5053415;28;20754;-56
2021/10/06 01:52:55;;;;;;;3.43;1.20;;;12.10;99.90;;;;;;5052709;28;20517;-56
2021/10/06 01:55:29;;;;;;;4.50;1.37;;;11.90;99.90;;;;;;5052832;28;20224;-56
2021/10/06 01:57:59;;;;;;;3.13;1.10;;;12.00;99.90;;;;;;5052830;28;20154;-56
2021/10/06 02:00:26;;;;;;;1.27;0.97;;;12.00;99.90;;;;;;5052668;28;20417;-57
2021/10/06 02:02:52;;;;;;;1.53;0.93;;;12.00;99.90;;;;;;5052607;28;20430;-57
2021/10/06 02:05:18;;;;;;;1.57;0.80;;;12.00;99.90;;;;;;5052587;28;20954;-58
2021/10/06 02:07:43;;;;;;;1.83;1.10;;;11.90;99.90;;;;;;5052604;28;20410;-57
2021/10/06 02:10:09;;;;;;;2.77;1.03;;;11.80;99.90;;;;;;5052590;28;20166;-56
2021/10/06 02:12:35;;;;;;;2.03;1.07;;;11.80;99.90;;;;;;5052485;28;20595;-57
2021/10/06 02:15:01;;;;;;;2.03;1.10;;;11.80;99.90;;;;;;5052603;28;20418;-55
2021/10/06 02:17:27;;;;;;;3.43;1.50;;;11.70;99.90;;;;;;5052489;28;20171;-56
2021/10/06 02:19:52;;;;;;;2.30;1.33;;;11.60;99.90;;;;;;5052554;28;20531;-57
2021/10/06 02:22:18;;;;;;;1.23;0.93;;;11.70;99.90;;;;;;5052799;28;20170;-57
2021/10/06 02:24:44;;;;;;;2.13;1.13;;;11.80;99.90;;;;;;5052623;28;20196;-56
2021/10/06 02:27:09;;;;;;;1.57;1.00;;;11.70;99.90;;;;;;5052833;28;20166;-59
2021/10/06 02:29:35;;;;;;;3.37;1.07;;;11.70;99.90;;;;;;5053229;28;20171;-56
2021/10/06 02:32:01;;;;;;;2.03;1.10;;;11.80;99.90;;;;;;5052271;28;20163;-56
2021/10/06 02:34:26;;;;;;;2.20;1.20;;;11.80;99.90;;;;;;5074905;22;20309;-57
2021/10/06 02:36:52;;;;;;;2.33;1.40;;;11.80;99.90;;;;;;5054078;28;20174;-55
2021/10/06 02:39:18;;;;;;;1.90;1.10;;;11.70;99.90;;;;;;5052967;28;20159;-58
2021/10/06 02:41:44;;;;;;;2.57;0.87;;;11.80;99.90;;;;;;5053221;28;20452;-56
2021/10/06 02:44:10;;;;;;;2.30;1.20;;;11.80;99.90;;;;;;5052670;28;20968;-55
2021/10/06 02:46:35;;;;;;;2.33;1.20;;;11.80;99.90;;;;;;5052801;28;20632;-58
2021/10/06 02:49:01;;;;;;;2.10;0.93;;;11.70;99.90;;;;;;5052488;28;20173;-57
2021/10/06 02:51:27;;;;;;;1.67;1.27;;;11.60;99.90;;;;;;5055597;28;20175;-55
2021/10/06 02:53:52;;;;;;;2.53;1.10;;;11.70;99.90;;;;;;5056629;28;20619;-56
2021/10/06 02:56:18;;;;;;;1.10;0.80;;;11.70;99.90;;;;;;5056641;28;20163;-54
2021/10/06 02:58:44;;;;;;;1.67;1.07;;;11.80;99.90;;;;;;5056561;28;20166;-56
2021/10/06 03:01:10;;;;;;;2.57;1.00;;;11.80;99.90;;;;;;5056707;28;20170;-58
2021/10/06 03:03:35;;;;;;;2.10;1.20;;;11.80;99.90;;;;;;5055660;28;20520;-59
2021/10/06 03:06:02;;;;;;;2.30;1.10;;;11.80;99.90;;;;;;5051913;28;20297;-58
2021/10/06 03:08:27;;;;;;;2.10;1.13;;;11.80;99.90;;;;;;5036344;28;20155;-55
2021/10/06 03:10:53;;;;;;;2.90;1.40;;;11.70;99.90;;;;;;5036711;28;20409;-58
2021/10/06 03:13:19;;;;;;;2.40;1.20;;;11.70;99.90;;;;;;5036164;28;20195;-58
2021/10/06 03:15:44;;;;;;;1.90;1.17;;;11.70;99.90;;;;;;5036281;28;20190;-58
2021/10/06 03:18:11;;;;;;;2.00;1.03;;;11.70;99.90;;;;;;5035981;28;20211;-58
2021/10/06 03:20:37;;;;;;;1.93;1.13;;;11.70;99.90;;;;;;5036319;28;20167;-58
2021/10/06 03:23:03;;;;;;;2.63;1.10;;;11.60;99.90;;;;;;5035647;28;20528;-58
2021/10/06 03:25:29;;;;;;;2.57;1.20;;;11.60;99.90;;;;;;5035934;28;20191;-58
2021/10/06 03:27:55;;;;;;;3.00;1.20;;;11.50;99.90;;;;;;5035596;28;20436;-58
2021/10/06 03:30:20;;;;;;;1.73;1.00;;;11.50;99.90;;;;;;5036160;28;20628;-58
2021/10/06 03:32:46;;;;;;;2.97;1.10;;;11.50;99.90;;;;;;5042829;28;20190;-58
2021/10/06 03:35:12;;;;;;;4.70;1.80;;;11.60;99.90;;;;;;5056039;28;20155;-57
2021/10/06 03:37:38;;;;;;;2.70;1.00;;;11.60;99.90;;;;;;5055717;28;20171;-55
2021/10/06 03:40:08;;;;;;;2.03;1.53;;;11.60;99.90;;;;;;5055734;28;20412;-56
2021/10/06 03:42:33;;;;;;;2.57;1.53;;;11.60;99.90;;;;;;5056208;28;20225;-57
2021/10/06 03:44:59;;;;;;;3.67;1.07;;;11.60;99.90;;;;;;5055183;28;20475;-56
2021/10/06 03:47:24;;;;;;;2.10;1.10;;;11.70;99.90;;;;;;5055638;28;20513;-55
2021/10/06 03:49:50;;;;;;;3.60;1.80;;;11.60;99.90;;;;;;5053612;28;20254;-56
2021/10/06 03:52:16;;;;;;;4.00;1.07;;;11.70;99.90;;;;;;5054872;28;20180;-55
2021/10/06 03:54:41;;;;;;;3.47;1.33;;;11.70;99.90;;;;;;5055622;28;20185;-54
2021/10/06 03:57:07;;;;;;;1.60;1.07;;;11.70;99.90;;;;;;5055449;28;20195;-57
2021/10/06 03:59:32;;;;;;;3.50;1.37;;;11.70;99.90;;;;;;5055292;28;20197;-55
2021/10/06 04:01:58;;;;;;;2.67;1.20;;;11.70;99.90;;;;;;5054747;28;20169;-56
2021/10/06 04:04:23;;;;;;;2.87;1.17;;;11.70;99.90;;;;;;5054813;28;20738;-57
2021/10/06 04:06:49;;;;;;;1.30;0.70;;;11.80;99.90;;;;;;5055184;28;20517;-58
2021/10/06 04:09:15;;;;;;;1.30;1.10;;;11.80;99.90;;;;;;5055167;28;20177;-58
2021/10/06 04:11:40;;;;;;;3.23;1.10;;;11.70;99.90;;;;;;5055098;28;20511;-58
2021/10/06 04:14:06;;;;;;;1.67;1.13;;;11.90;99.90;;;;;;5055478;28;20192;-58
2021/10/06 04:16:31;;;;;;;3.27;1.30;;;12.00;99.90;;;;;;5054868;28;20167;-57
2021/10/06 04:18:57;;;;;;;3.00;0.80;;;11.90;99.90;;;;;;5052682;28;20257;-59
2021/10/06 04:21:23;;;;;;;2.50;1.27;;;11.90;99.90;;;;;;5052198;28;20177;-58
2021/10/06 04:23:48;;;;;;;2.10;1.10;;;11.90;99.90;;;;;;5054865;28;20187;-58
2021/10/06 04:26:14;;;;;;;3.60;1.03;;;11.80;99.90;;;;;;5054752;28;20167;-58
2021/10/06 04:28:39;;;;;;;2.27;1.07;;;11.70;99.90;;;;;;5054962;28;20162;-58
2021/10/06 04:31:05;;;;;;;1.50;1.10;;;11.70;99.90;;;;;;5054913;28;20599;-58
2021/10/06 04:33:31;;;;;;;3.50;1.00;;;11.60;99.90;;;;;;5054635;28;20212;-57
2021/10/06 04:35:56;;;;;;;1.43;1.10;;;11.70;99.90;;;;;;5054735;28;20167;-56
2021/10/06 04:38:22;;;;;;;2.83;0.97;;;11.60;99.90;;;;;;5054619;28;20666;-57
2021/10/06 04:40:47;;;;;;;1.87;0.80;;;11.50;99.90;;;;;;5054855;28;20167;-57
2021/10/06 04:43:13;;;;;;;5.90;1.10;;;11.60;99.90;;;;;;5051046;28;20646;-57
2021/10/06 04:45:39;;;;;;;3.87;1.20;;;11.60;99.90;;;;;;5054539;28;20201;-59
2021/10/06 04:48:05;;;;;;;5.17;1.30;;;11.50;99.90;;;;;;5054129;28;20647;-50
2021/10/06 04:50:30;;;;;;;2.27;1.40;;;11.50;99.90;;;;;;5054316;28;20770;-57
2021/10/06 04:52:57;;;;;;;3.73;1.37;;;11.50;99.90;;;;;;5053900;28;20228;-58
2021/10/06 04:55:22;;;;;;;3.40;2.00;;;11.40;99.90;;;;;;5054545;28;20167;-57
2021/10/06 04:57:48;;;;;;;5.17;1.40;;;11.40;99.90;;;;;;5054657;28;20940;-57
2021/10/06 05:00:14;;;;;;;2.70;1.40;;;11.40;99.90;;;;;;5054108;28;20655;-56
2021/10/06 05:02:39;;;;;;;2.30;1.30;;;11.50;99.90;;;;;;5053956;28;20221;-53
2021/10/06 05:05:06;;;;;;;2.20;1.20;;;11.70;99.90;;;;;;5054052;28;20476;-55
2021/10/06 05:07:32;;;;;;;2.50;0.90;;;11.60;99.90;;;;;;5054594;28;20199;-57
2021/10/06 05:09:57;;;;;;;1.40;1.17;;;11.70;99.90;;;;;;5054376;28;20935;-55
2021/10/06 05:12:23;;;;;;;1.77;0.93;;;11.60;99.90;;;;;;5054134;28;20171;-58
2021/10/06 05:14:50;;;;;;;3.00;1.20;;;11.80;99.90;;;;;;5051275;28;20194;-58
2021/10/06 05:17:16;;;;;;;2.50;1.33;;;11.80;99.90;;;;;;5035167;28;20409;-58
2021/10/06 05:19:41;;;;;;;2.60;0.93;;;12.00;99.90;;;;;;5033723;28;20924;-58
2021/10/06 05:22:07;;;;;;;3.07;1.00;;;12.10;99.90;;;;;;5048341;28;20183;-58
2021/10/06 05:24:32;;;;;;;2.83;1.03;;;12.10;99.90;;;;;;5052019;28;20216;-53
2021/10/06 05:26:58;;;;;;;2.30;1.43;;;12.10;99.90;;;;;;5053543;28;20171;-56
2021/10/06 05:29:24;;;;;;;2.03;1.30;;;12.00;99.90;;;;;;5054237;28;20163;-58
2021/10/06 05:31:49;;;;;;;2.53;0.97;;;12.00;99.90;;;;;;5052835;28;20608;-57
2021/10/06 05:34:15;;;;;;;1.53;0.90;;;12.00;99.90;;;;;;5053147;28;20203;-54
2021/10/06 05:36:40;;;;;;;3.57;1.30;;;12.10;99.90;;;;;;5053394;28;20273;-57
2021/10/06 05:39:06;;;;;;;4.40;1.10;;;12.00;99.90;;;;;;5053270;28;20205;-57
2021/10/06 05:41:32;;;;;;;2.00;1.00;;;11.90;99.90;;;;;;5053521;28;20210;-55
2021/10/06 05:43:57;;;;;;;1.70;1.27;;;11.90;99.90;;;;;;5053432;28;20240;-56
2021/10/06 05:46:26;;;;;;;2.50;1.70;;;11.80;99.90;;;;;;5053509;28;20194;-58
2021/10/06 05:48:52;;;;;;;3.40;1.27;;;11.70;99.90;;;;;;5051827;28;20273;-57
2021/10/06 05:51:17;;;;;;;1.10;0.90;;;11.80;99.90;;;;;;5053096;28;20410;-58
2021/10/06 05:53:43;;;;;;;1.70;1.17;;;11.90;99.90;;;;;;5053227;28;20862;-58
2021/10/06 05:56:09;;;;;;;3.30;1.33;;;11.90;99.90;;;;;;5051905;28;20267;-56
2021/10/06 05:58:34;;;;;;;4.17;1.33;;;11.90;99.90;;;;;;5052479;28;20248;-57
2021/10/06 06:01:00;;;;;;;3.23;1.00;;;11.90;99.90;;;;;;5053368;28;20174;-54
2021/10/06 06:03:26;;;;;;;2.13;1.30;;;12.00;99.90;;;;;;5053072;28;20288;-57
2021/10/06 06:05:51;;;;;;;2.90;1.20;;;11.80;99.90;;;;;;5053103;28;20190;-58
2021/10/06 06:08:17;;;;;;;2.43;1.50;;;11.80;99.90;;;;;;5053176;28;20205;-55
2021/10/06 06:10:46;;;;;;;1.80;1.20;;;11.90;99.90;;;;;;5053476;28;20250;-56
2021/10/06 06:13:11;;;;;;;4.10;1.53;;;12.10;99.90;;;;;;5052404;28;20221;-56
2021/10/06 06:15:37;;;;;;;4.80;1.20;;;12.00;99.90;;;;;;5052890;28;20417;-58
2021/10/06 06:18:03;;;;;;;2.77;1.43;;;12.00;99.90;;;;;;5052787;28;20178;-58
2021/10/06 06:20:28;;;;;;;6.53;1.00;;;12.00;99.90;;;;;;5051739;28;20176;-58
2021/10/06 06:22:54;;;;;;;2.63;1.40;;;12.00;99.90;;;;;;5053183;28;20188;-57
2021/10/06 06:25:21;;;;;;;7.20;1.40;;;11.90;99.90;;;;;;5055009;28;20240;-58
2021/10/06 06:27:47;;;;;;;2.40;0.93;;;11.80;99.90;;;;;;5057043;28;20182;-57
2021/10/06 06:30:13;;;;;;;2.57;1.17;;;11.80;99.90;;;;;;5057246;28;20412;-56
2021/10/06 06:32:41;;;;;;;3.30;0.90;;;11.80;99.90;;;;;;5056597;28;20481;-52
2021/10/06 06:35:07;;;;;;;1.40;1.07;;;11.90;99.90;;;;;;5057127;28;20908;-58
2021/10/06 06:37:33;;;;;;;1.37;1.23;;;12.00;99.90;;;;;;5056992;28;20413;-56
2021/10/06 06:39:58;;;;;;;2.50;1.20;;;11.90;99.90;;;;;;5056821;28;20412;-58
2021/10/06 06:42:24;;;;;;;7.40;2.00;;;11.80;99.90;;;;;;5056814;28;20693;-54
2021/10/06 06:44:50;;;;;;;4.37;1.30;;;11.80;99.90;;;;;;5056671;28;20201;-58
2021/10/06 06:47:15;;;;;;;2.73;1.30;;;11.80;99.90;;;;;;5056678;28;20897;-57
2021/10/06 06:49:47;;;;;;;3.57;1.00;;;11.70;99.90;;;;;;5057022;28;20175;-57
2021/10/06 06:52:13;;;;;;;2.60;1.00;;;11.70;99.90;;;;;;5056733;28;20169;-57
2021/10/06 06:54:38;;;;;;;4.30;1.13;;;11.70;99.90;;;;;;5056778;28;20429;-57
2021/10/06 06:57:04;;;;;;;2.20;1.17;;;11.70;99.90;;;;;;5056569;28;20177;-58
2021/10/06 06:59:30;;;;;;;2.10;1.10;;;11.80;99.90;;;;;;5056320;28;20170;-56
2021/10/06 07:01:57;;;;;;;4.90;1.23;;;11.90;99.90;;;;;;5056496;28;20166;-57
2021/10/06 07:04:23;;;;;;;2.90;1.37;;;11.90;99.90;;;;;;5056170;28;20191;-57
2021/10/06 07:06:52;;;;;;;1.50;1.10;;;11.90;99.90;;;;;;5056391;28;20398;-57
2021/10/06 07:09:22;;;;;;;2.47;1.37;;;12.00;99.90;;;;;;5055786;28;20489;-57
2021/10/06 07:11:48;;;;;;;1.10;0.90;;;12.00;99.90;;;;;;5053533;28;20405;-57
2021/10/06 07:14:13;;;;;;;1.90;1.13;;;12.10;99.90;;;;;;5036016;28;20444;-57
2021/10/06 07:16:39;;;;;;;1.57;1.17;;;12.10;99.90;;;;;;5036309;28;20183;-57
2021/10/06 07:19:05;;;;;;;2.27;1.20;;;12.10;99.90;;;;;;5035970;28;20177;-57
2021/10/06 07:21:30;;;;;;;2.20;1.20;;;12.20;99.90;;;;;;5036522;28;20752;-55
2021/10/06 07:23:56;;;;;;;3.73;1.60;;;12.10;99.90;;;;;;5035839;28;20196;-56
2021/10/06 07:26:22;;;;;;;1.60;1.17;;;12.10;99.90;;;;;;5036207;28;20254;-57
2021/10/06 07:28:48;;;;;;;2.43;1.20;;;12.10;99.90;;;;;;5051579;28;20178;-56
2021/10/06 07:31:13;;;;;;;2.30;1.20;;;12.20;99.90;;;;;;5056414;28;20168;-55
2021/10/06 07:33:39;;;;;;;3.50;1.10;;;12.30;99.90;;;;;;5055974;28;20251;-53
2021/10/06 07:36:05;;;;;;;4.33;1.40;;;12.30;99.90;;;;;;5052398;28;20628;-53
2021/10/06 07:38:30;;;;;;;1.90;1.10;;;12.40;99.90;;;;;;5056147;28;20213;-56
2021/10/06 07:40:56;;;;;;;2.80;1.43;;;12.50;99.90;;;;;;5056413;28;20417;-58
2021/10/06 07:43:21;;;;;;;4.50;1.20;;;12.50;99.90;;;;;;5056284;28;20194;-52
2021/10/06 07:45:47;;;;;;;3.67;1.00;;;12.60;99.90;;;;;;5056298;28;20190;-54
2021/10/06 07:48:13;;;;;;;2.50;1.00;;;12.80;99.90;;;;;;5055856;28;20544;-53
2021/10/06 07:50:39;;;;;;;2.17;1.30;;;12.90;99.90;;;;;;5056309;28;20646;-52
2021/10/06 07:53:05;;;;;;;5.63;1.50;;;13.10;99.90;;;;;;5055985;28;20435;-54
2021/10/06 07:55:31;;;;;;;4.07;1.33;;;13.40;99.90;;;;;;5055897;28;20539;-54
2021/10/06 07:57:56;;;;;;;4.53;1.20;;;13.70;99.90;;;;;;5054770;28;20419;-54
2021/10/06 08:00:23;;;;;;;3.63;1.10;;;13.80;99.90;;;;;;5055834;28;20595;-56
2021/10/06 08:02:48;;;;;;;3.80;1.40;;;13.80;99.90;;;;;;5053065;28;20210;-56
2021/10/06 08:05:14;;;;;;;6.33;1.63;;;13.80;99.90;;;;;;5044881;28;20536;-55
2021/10/06 08:07:39;;;;;;;2.00;1.27;;;13.80;99.90;;;;;;5055433;28;20623;-55
2021/10/06 08:10:06;;;;;;;2.97;1.10;;;13.90;99.90;;;;;;5053947;28;20227;-56
2021/10/06 08:12:31;;;;;;;4.23;1.47;;;13.80;99.90;;;;;;5055865;28;20249;-55
2021/10/06 08:14:57;;;;;;;2.40;1.00;;;13.80;99.90;;;;;;5055468;28;20445;-52
2021/10/06 08:17:23;;;;;;;5.80;1.47;;;13.90;99.90;;;;;;5054872;28;20180;-57
2021/10/06 08:19:49;;;;;;;3.23;1.20;;;14.10;99.90;;;;;;5054778;28;20209;-56
2021/10/06 08:22:16;;;;;;;4.03;1.27;;;14.20;99.90;;;;;;5055234;28;20474;-57
2021/10/06 08:24:42;;;;;;;3.20;1.30;;;14.20;99.90;;;;;;5054817;28;20197;-57
2021/10/06 08:27:09;;;;;;;3.37;1.00;;;14.50;99.90;;;;;;5054547;28;20475;-53
2021/10/06 08:29:34;;;;;;;3.20;1.33;;;14.50;99.90;;;;;;5055290;28;20513;-53
2021/10/06 08:32:00;;;;;;;1.50;1.40;;;14.80;99.90;;;;;;5054590;28;20436;-55
2021/10/06 08:34:26;;;;;;;4.20;1.20;;;15.10;99.90;;;;;;5064687;22;20354;-54
2021/10/06 08:36:51;;;;;;;2.33;1.30;;;15.60;99.90;;;;;;5021989;28;20190;-54
2021/10/06 08:39:17;;;;;;;2.80;1.20;;;15.80;99.90;;;;;;5002336;28;20278;-52
2021/10/06 08:41:43;;;;;;;1.90;1.33;;;15.70;99.90;;;;;;5031953;28;20174;-55
2021/10/06 08:44:09;;;;;;;3.67;1.17;;;15.20;99.90;;;;;;5034283;28;20426;-52
2021/10/06 08:46:35;;;;;;;1.80;1.40;;;14.90;99.90;;;;;;5034751;28;20224;-55
2021/10/06 08:49:00;;;;;;;2.30;1.20;;;14.90;99.90;;;;;;5033867;28;20538;-56
2021/10/06 08:51:27;;;;;;;4.50;1.10;;;14.90;99.90;;;;;;5034508;28;20419;-55
2021/10/06 08:53:53;;;;;;;5.90;1.40;;;14.90;99.90;;;;;;5034704;28;20196;-51
2021/10/06 08:56:21;;;;;;;2.60;1.10;;;14.80;99.90;;;;;;5034215;28;20437;-56
2021/10/06 08:58:48;;;;;;;2.40;1.20;;;14.70;99.90;;;;;;5034277;28;20410;-54
2021/10/06 09:01:27;;;;;;;2.63;1.80;;;14.60;99.90;;;;;;5034542;28;20404;-56
2021/10/06 09:03:58;;;;;;;4.97;1.40;;;14.60;99.90;;;;;;5013051;28;20454;-58
2021/10/06 09:06:42;;;;;;;3.27;1.87;;;14.70;99.90;;;;;;5019421;28;20800;-50
2021/10/06 09:09:16;;;;;;;1.90;1.00;;;14.40;99.90;;;;;;5014511;28;20465;-56
2021/10/06 09:11:44;;;;;;;2.83;1.50;;;14.60;99.90;;;;;;5014413;28;20781;-56
2021/10/06 09:14:10;;;;;;;4.60;1.60;;;14.90;99.90;;;;;;5013936;28;20429;-55
2021/10/06 09:16:37;;;;;;;3.20;1.60;;;15.00;99.90;;;;;;5012292;28;20786;-58
2021/10/06 09:19:08;;;;;;;3.07;1.27;;;14.90;99.90;;;;;;5013156;28;20192;-56
2021/10/06 09:22:02;;;;;;;7.13;1.30;;;15.10;99.90;;;;;;5013565;28;20462;-56
2021/10/06 09:24:49;;;;;;;2.73;1.37;;;15.20;99.90;;;;;;5014022;28;20449;-56
2021/10/06 09:27:36;;;;;;;2.70;1.20;;;15.40;99.90;;;;;;5014030;28;20403;-54
2021/10/06 09:30:08;;;;;;;2.70;1.20;;;15.60;99.90;;;;;;5013673;28;20474;-51
2021/10/06 09:32:42;;;;;;;1.77;1.00;;;15.90;99.90;;;;;;5009505;28;20423;-50
2021/10/06 09:35:14;;;;;;;9.23;1.60;;;16.00;99.90;;;;;;5013670;28;20882;-53
2021/10/06 09:37:43;;;;;;;1.93;0.97;;;16.00;99.90;;;;;;5013922;28;20384;-53
2021/10/06 09:40:11;;;;;;;2.87;1.17;;;15.80;99.90;;;;;;5013491;28;20512;-53
2021/10/06 09:42:41;;;;;;;6.03;1.10;;;15.80;99.90;;;;;;5013961;28;20414;-53
2021/10/06 09:45:07;;;;;;;3.40;1.17;;;15.80;99.90;;;;;;5013733;28;20453;-56
2021/10/06 09:47:35;;;;;;;4.43;1.20;;;16.10;99.90;;;;;;5012479;28;20501;-53
2021/10/06 09:50:02;;;;;;;7.70;1.10;;;16.20;99.90;;;;;;5012997;28;20463;-50
2021/10/06 09:52:33;;;;;;;4.60;1.33;;;16.30;99.90;;;;;;5013818;28;20462;-49
2021/10/06 09:55:08;;;;;;;2.77;1.23;;;16.20;99.90;;;;;;5013780;28;20888;-53
2021/10/06 09:57:37;;;;;;;3.90;1.20;;;16.30;99.90;;;;;;5013837;28;20483;-49
2021/10/06 10:00:05;;;;;;;3.07;1.13;;;16.90;99.90;;;;;;5020234;28;20462;-55
2021/10/06 10:02:30;;;;;;;2.03;1.30;;;17.20;99.90;;;;;;5032855;28;20463;-54
2021/10/06 10:04:57;;;;;;;3.00;1.50;;;17.40;99.90;;;;;;5031819;28;20457;-52
2021/10/06 10:07:24;;;;;;;5.63;0.93;;;17.10;99.90;;;;;;5033410;28;20171;-54
2021/10/06 10:09:51;;;;;;;3.90;1.57;;;16.20;99.90;;;;;;5032991;28;20414;-56
2021/10/06 10:12:21;;;;;;;3.47;1.33;;;16.00;99.90;;;;;;5033284;28;20405;-51
2021/10/06 10:14:48;;;;;;;2.60;1.00;;;15.60;99.90;;;;;;5032982;28;20481;-49
2021/10/06 10:17:15;;;;;;;3.20;1.00;;;15.30;99.90;;;;;;5032981;28;20406;-54
2021/10/06 10:19:43;;;;;;;1.23;0.80;;;15.10;99.90;;;;;;5032945;28;20778;-51
2021/10/06 10:22:11;;;;;;;2.00;0.93;;;14.90;99.90;;;;;;5032975;28;20409;-55
2021/10/06 10:24:45;;;;;;;2.87;1.30;;;15.00;99.90;;;;;;5032669;28;20457;-54
2021/10/06 10:27:13;;;;;;;2.10;1.10;;;15.30;99.90;;;;;;5031700;28;20411;-53
2021/10/06 10:29:50;;;;;;;2.03;1.23;;;15.60;99.90;;;;;;5033162;28;20434;-55
2021/10/06 10:32:19;;;;;;;2.17;1.03;;;15.80;99.90;;;;;;5033050;28;20388;-54
2021/10/06 10:34:59;;;;;;;2.70;1.10;;;15.60;99.90;;;;;;5032569;28;20893;-52
2021/10/06 10:37:51;;;;;;;2.47;1.40;;;15.90;99.90;;;;;;5032767;28;20904;-53
2021/10/06 10:40:34;;;;;;;3.23;2.37;;;16.10;99.90;;;;;;5032794;28;20431;-49
2021/10/06 10:43:11;;;;;;;2.73;1.83;;;16.40;99.90;;;;;;5032903;28;20400;-53
2021/10/06 10:45:49;;;;;;;4.17;2.80;;;16.90;99.90;;;;;;5032611;28;20443;-52
2021/10/06 10:48:20;;;;;;;3.97;2.03;;;17.30;99.90;;;;;;5031526;28;20504;-55
2021/10/06 10:50:46;;;;;;;3.77;2.03;;;17.40;99.90;;;;;;5032571;28;20390;-52
2021/10/06 10:53:14;;;;;;;2.00;1.33;;;17.50;99.90;;;;;;5033094;28;20401;-54
2021/10/06 10:55:46;;;;;;;7.87;1.10;;;17.00;99.90;;;;;;5033448;28;20318;-56
2021/10/06 10:58:32;;;;;;;1.97;1.27;;;16.10;99.90;;;;;;5017943;28;20428;-52
2021/10/06 11:01:05;;;;;;;2.00;1.10;;;15.50;99.90;;;;;;5012957;28;20923;-52
2021/10/06 11:03:31;;;;;;;2.00;1.00;;;15.40;99.90;;;;;;5023871;28;20464;-52
2021/10/06 11:05:57;;;;;;;1.80;0.83;;;15.60;99.90;;;;;;5033015;28;20449;-55
2021/10/06 11:08:27;;;;;;;3.00;1.07;;;16.00;99.90;;;;;;5032962;28;20407;-53
2021/10/06 11:11:11;;;;;;;1.37;0.83;;;16.90;99.90;;;;;;5033564;28;20166;-52
2021/10/06 11:13:48;;;;;;;1.60;0.83;;;18.90;99.90;;;;;;5036572;28;20429;-51
2021/10/06 11:16:14;;;;;;;3.07;1.00;;;21.60;99.90;;;;;;5034480;28;20914;-51
2021/10/06 11:18:51;;;;;;;7.20;0.87;;;21.20;99.90;;;;;;5035699;28;20469;-49
2021/10/06 11:21:37;;;;;;;2.03;1.00;;;19.70;99.90;;;;;;5036689;28;20863;-52
2021/10/06 11:24:20;;;;;;;6.07;1.10;;;19.20;99.90;;;;;;5036119;28;20426;-51
2021/10/06 11:26:47;;;;;;;2.07;1.10;;;18.20;99.90;;;;;;5036345;28;20463;-49
2021/10/06 11:29:13;;;;;;;2.13;1.30;;;17.80;99.90;;;;;;5034988;28;20422;-51
2021/10/06 11:31:40;;;;;;;2.87;1.07;;;17.60;99.90;;;;;;5036741;28;20417;-50
2021/10/06 11:34:18;;;;;;;5.90;1.53;;;17.50;99.90;;;;;;5036041;28;20206;-51
2021/10/06 11:36:52;;;;;;;2.73;1.63;;;18.00;99.90;;;;;;5036908;28;20421;-49
2021/10/06 11:39:18;;;;;;;2.20;1.00;;;20.50;99.90;;;;;;5036760;28;20413;-55
2021/10/06 11:41:47;;;;;;;4.07;1.20;;;22.00;98.70;;;;;;5036796;28;20491;-49
2021/10/06 11:44:42;;;;;;;4.40;1.17;;;22.30;97.80;;;;;;5035399;28;20512;-56
2021/10/06 11:47:15;;;;;;;4.50;1.20;;;21.50;97.60;;;;;;5032463;28;20509;-55
2021/10/06 11:49:42;;;;;;;3.63;1.40;;;22.30;96.30;;;;;;5034273;28;20791;-54
2021/10/06 11:52:11;;;;;;;1.63;0.80;;;22.80;96.80;;;;;;5035449;28;20417;-50
2021/10/06 11:54:37;;;;;;;5.60;1.67;;;23.00;94.90;;;;;;5035373;28;20965;-54
2021/10/06 11:57:05;;;;;;;1.30;1.00;;;23.70;93.10;;;;;;5035367;28;20781;-54
2021/10/06 11:59:33;;;;;;;5.53;1.33;;;24.90;93.50;;;;;;5035384;28;20410;-52
2021/10/06 12:02:06;;;;;;;2.60;1.37;;;25.40;89.00;;;;;;5034659;28;20773;-53
2021/10/06 12:04:37;;;;;;;1.87;0.70;;;25.10;85.80;;;;;;5034902;28;20971;-53
2021/10/06 12:07:06;;;;;;;2.17;0.83;;;25.90;78.60;;;;;;5035620;28;20393;-54
2021/10/06 12:09:36;;;;;;;4.27;0.90;;;26.00;80.80;;;;;;5034991;28;20405;-52
2021/10/06 12:12:07;;;;;;;2.30;0.83;;;25.60;81.60;;;;;;5035482;28;20387;-52
2021/10/06 12:14:33;;;;;;;2.80;1.37;;;25.60;81.50;;;;;;5035378;28;20476;-54
2021/10/06 12:17:07;;;;;;;2.20;0.80;;;25.60;76.90;;;;;;5035461;28;20406;-54
2021/10/06 12:19:35;;;;;;;1.23;1.00;;;22.80;81.70;;;;;;5035075;28;20895;-56
2021/10/06 12:22:01;;;;;;;4.10;0.90;;;21.30;87.20;;;;;;5035396;28;20416;-56
2021/10/06 12:24:29;;;;;;;5.13;0.90;;;19.80;91.30;;;;;;5034778;28;20450;-53
2021/10/06 12:26:56;;;;;;;2.60;1.10;;;18.70;93.80;;;;;;5035453;28;20418;-54
2021/10/06 12:29:29;;;;;;;3.63;1.13;;;17.60;98.80;;;;;;5035049;28;20394;-53
2021/10/06 12:32:13;;;;;;;2.13;0.70;;;16.70;99.90;;;;;;5035000;28;20875;-50
2021/10/06 12:34:39;;;;;;;1.23;0.63;;;15.90;99.90;;;;;;5033200;28;20531;-54
2021/10/06 12:37:06;;;;;;;1.70;0.90;;;15.40;99.90;;;;;;5034936;28;20407;-53
2021/10/06 12:39:31;;;;;;;1.80;1.20;;;15.20;99.90;;;;;;5024086;28;20288;-53
2021/10/06 12:42:01;;;;;;;1.37;0.70;;;16.60;99.90;;;;;;5021358;28;20848;-54
2021/10/06 12:44:35;;;;;;;1.80;0.90;;;18.50;99.90;;;;;;5014901;28;20203;-53
2021/10/06 12:47:01;;;;;;;2.13;0.70;;;20.30;99.90;;;;;;5015557;28;20394;-53
2021/10/06 12:49:29;;;;;;;1.30;0.80;;;21.50;98.90;;;;;;5014629;28;20407;-53